Time;durP1;ratioP1;P1;durP2;ratioP2;P2;SDS_P1;SDS_P2;PMS_P1;PMS_P2;Temp;Humidity;BMP_temperature;BMP_pressure;BME280_temperature;BME280_humidity;BME280_pressure;Samples;Min_cycle;Max_cycle;Signal;HPM_P1;HPM_P2
2022/02/08 00:03:04;;;;;;;2.90;1.00;;;17.20;63.30;;;;;;10243407;28;20262;-68
2022/02/08 00:08:27;;;;;;;1.90;1.13;;;17.20;63.30;;;;;;10247145;29;20217;-69
2022/02/08 00:13:49;;;;;;;1.67;0.77;;;17.20;63.30;;;;;;10245177;28;20707;-68
2022/02/08 00:24:16;;;;;;;2.50;1.10;;;17.20;63.20;;;;;;10320469;28;20328;-69
2022/02/08 00:29:38;;;;;;;1.83;1.07;;;17.20;63.20;;;;;;10326871;28;20691;-69
2022/02/08 00:35:00;;;;;;;3.23;1.10;;;17.20;63.20;;;;;;10327898;28;20203;-69
2022/02/08 00:40:26;;;;;;;3.27;1.00;;;17.20;63.20;;;;;;10327543;28;20219;-69
2022/02/08 00:45:54;;;;;;;2.83;1.33;;;17.20;63.30;;;;;;10326325;28;20210;-68
2022/02/08 00:51:17;;;;;;;1.23;0.70;;;17.20;63.20;;;;;;10327368;28;20215;-69
2022/02/08 00:56:40;;;;;;;2.63;0.80;;;17.20;63.10;;;;;;10327356;28;20322;-69
2022/02/08 01:02:03;;;;;;;1.23;0.90;;;17.20;63.20;;;;;;10326162;28;20594;-69
2022/02/08 01:07:27;;;;;;;1.77;0.90;;;17.20;63.20;;;;;;10324612;28;20222;-69
2022/02/08 01:12:50;;;;;;;2.17;1.00;;;17.20;63.20;;;;;;10324901;28;20221;-69
2022/02/08 01:18:12;;;;;;;1.73;0.67;;;17.20;63.10;;;;;;10326745;28;20199;-68
2022/02/08 01:23:34;;;;;;;2.33;0.93;;;17.20;63.10;;;;;;10325741;28;20238;-69
2022/02/08 01:29:03;;;;;;;2.63;0.90;;;17.20;63.10;;;;;;10325899;28;20214;-69
2022/02/08 01:34:32;;;;;;;2.70;1.10;;;17.20;63.10;;;;;;10334145;28;20777;-69
2022/02/08 01:40:05;;;;;;;1.40;0.80;;;17.10;63.40;;;;;;10332614;28;20223;-69
2022/02/08 01:45:43;;;;;;;3.20;1.10;;;17.10;63.10;;;;;;10334082;28;20269;-69
2022/02/08 01:51:05;;;;;;;1.60;0.80;;;17.20;63.10;;;;;;10333378;28;20582;-69
2022/02/08 01:56:28;;;;;;;1.73;0.70;;;17.20;63.20;;;;;;10333247;28;20195;-69
2022/02/08 02:01:51;;;;;;;1.60;0.80;;;17.20;63.20;;;;;;10330761;28;20238;-69
2022/02/08 02:07:15;;;;;;;2.33;0.90;;;17.20;63.10;;;;;;10332174;28;20234;-69
2022/02/08 02:12:38;;;;;;;1.43;0.90;;;17.20;63.10;;;;;;10332736;28;20218;-69
2022/02/08 02:18:01;;;;;;;1.37;0.70;;;17.20;63.10;;;;;;10330783;28;20206;-69
2022/02/08 02:23:25;;;;;;;1.80;0.90;;;17.20;63.10;;;;;;10332181;28;20226;-69
2022/02/08 02:28:48;;;;;;;1.87;0.93;;;17.10;63.70;;;;;;10331514;28;20226;-70
2022/02/08 02:34:11;;;;;;;1.80;0.73;;;17.20;63.10;;;;;;10329608;28;20250;-70
2022/02/08 02:39:33;;;;;;;1.30;0.83;;;17.20;63.10;;;;;;10329757;28;20703;-70
2022/02/08 02:44:59;;;;;;;1.60;0.60;;;17.20;63.10;;;;;;10329183;28;20218;-69
2022/02/08 02:50:23;;;;;;;2.17;0.80;;;17.20;63.10;;;;;;10329619;28;20211;-70
2022/02/08 02:55:45;;;;;;;1.27;0.57;;;17.20;63.20;;;;;;10330079;28;20199;-70
2022/02/08 03:01:22;;;;;;;1.80;0.97;;;17.20;63.20;;;;;;10327964;28;20230;-70
2022/02/08 03:18:32;;;;;;;2.50;0.83;;;17.10;63.10;;;;;;10329997;28;20262;-71
2022/02/08 03:23:55;;;;;;;2.13;0.80;;;17.10;63.10;;;;;;10327585;28;20215;-69
2022/02/08 03:29:19;;;;;;;1.53;0.80;;;17.10;63.20;;;;;;10328416;28;20562;-70
2022/02/08 03:34:43;;;;;;;1.80;0.87;;;17.20;63.30;;;;;;10329356;28;20570;-71
2022/02/08 03:40:11;;;;;;;2.00;0.80;;;17.20;63.30;;;;;;10327961;28;20215;-70
2022/02/08 03:45:33;;;;;;;1.93;0.87;;;17.10;63.20;;;;;;10327944;28;20254;-71
2022/02/08 03:51:06;;;;;;;1.20;0.87;;;17.10;63.30;;;;;;10327485;28;20718;-70
2022/02/08 03:56:31;;;;;;;1.33;0.60;;;17.10;63.30;;;;;;10324817;28;20626;-70
2022/02/08 04:02:16;;;;;;;1.87;0.77;;;17.10;63.30;;;;;;10325390;28;20219;-70
2022/02/08 04:07:44;;;;;;;2.03;0.80;;;17.10;63.20;;;;;;10327459;28;20705;-71
2022/02/08 04:13:12;;;;;;;2.33;1.10;;;17.10;63.30;;;;;;10325752;28;20220;-70
2022/02/08 04:35:58;;;;;;;2.70;0.97;;;17.10;63.30;;;;;;10329215;28;20186;-70
2022/02/08 04:41:30;;;;;;;1.93;0.97;;;17.10;63.40;;;;;;10329368;28;20675;-70
2022/02/08 04:47:00;;;;;;;0.93;0.80;;;17.10;63.30;;;;;;10329099;28;20215;-69
2022/02/08 04:52:24;;;;;;;1.53;0.80;;;17.10;63.90;;;;;;10327839;28;20215;-71
2022/02/08 04:57:53;;;;;;;1.63;0.60;;;17.10;63.30;;;;;;10327821;28;20206;-70
2022/02/08 05:37:41;;;;;;;1.33;0.80;;;17.20;63.40;;;;;;10334570;28;20233;-71
2022/02/08 05:43:13;;;;;;;1.33;0.90;;;17.20;63.50;;;;;;10301393;28;20218;-71
2022/02/08 05:48:42;;;;;;;1.80;0.90;;;17.20;63.50;;;;;;10330090;28;20752;-70
2022/02/08 05:54:04;;;;;;;1.50;0.87;;;17.20;63.50;;;;;;10330395;28;20215;-70
2022/02/08 05:59:26;;;;;;;0.90;0.67;;;17.20;63.50;;;;;;10329636;28;20204;-70
2022/02/08 06:04:50;;;;;;;1.00;0.60;;;17.20;63.50;;;;;;10323812;28;20218;-70
2022/02/08 06:10:12;;;;;;;1.33;0.80;;;17.20;63.50;;;;;;10333463;28;20218;-71
2022/02/08 06:15:34;;;;;;;1.17;0.90;;;17.20;63.60;;;;;;10332427;28;20202;-69
2022/02/08 06:20:58;;;;;;;1.73;0.80;;;17.20;63.50;;;;;;10370603;23;20238;-66
2022/02/08 06:26:22;;;;;;;2.50;1.10;;;17.20;63.60;;;;;;10373478;28;20593;-65
2022/02/08 06:31:46;;;;;;;1.67;0.90;;;17.20;63.70;;;;;;10354414;28;20249;-66
2022/02/08 06:37:14;;;;;;;1.07;0.83;;;17.20;63.70;;;;;;10327675;28;20737;-66
2022/02/08 06:42:36;;;;;;;1.10;0.80;;;17.20;63.70;;;;;;10315933;28;20239;-66
2022/02/08 06:47:58;;;;;;;1.77;0.97;;;17.20;63.70;;;;;;10331602;28;20219;-67
2022/02/08 06:53:23;;;;;;;1.80;1.07;;;17.20;63.70;;;;;;10331617;28;20582;-66
2022/02/08 06:58:50;;;;;;;1.37;0.87;;;17.30;63.80;;;;;;10331028;28;20571;-65
2022/02/08 07:04:14;;;;;;;2.17;1.00;;;17.20;63.80;;;;;;10311045;28;20808;-67
2022/02/08 07:09:38;;;;;;;1.20;1.00;;;18.20;60.60;;;;;;10324838;28;20231;-67
2022/02/08 07:15:06;;;;;;;1.40;0.90;;;17.60;62.40;;;;;;10332158;28;20206;-66
2022/02/08 07:20:31;;;;;;;1.80;1.00;;;17.40;63.20;;;;;;10328975;28;20238;-67
2022/02/08 07:25:55;;;;;;;1.60;0.87;;;17.30;63.60;;;;;;10330011;28;20213;-66
2022/02/08 07:31:20;;;;;;;1.57;0.90;;;17.30;63.80;;;;;;10328901;28;20215;-67
2022/02/08 07:36:47;;;;;;;1.50;0.90;;;17.30;63.90;;;;;;10329394;28;20310;-67
2022/02/08 07:42:10;;;;;;;0.80;0.80;;;17.20;63.90;;;;;;10330568;28;20361;-67
2022/02/08 07:47:32;;;;;;;2.43;1.20;;;17.30;64.00;;;;;;10329716;28;20223;-68
2022/02/08 07:52:55;;;;;;;3.20;1.00;;;17.30;64.00;;;;;;10329484;28;20230;-67
2022/02/08 07:58:18;;;;;;;1.47;0.80;;;17.20;64.00;;;;;;10327390;28;20709;-68
2022/02/08 08:03:42;;;;;;;1.90;1.03;;;17.20;64.00;;;;;;10327781;28;20222;-68
2022/02/08 08:09:04;;;;;;;1.67;0.80;;;17.20;64.10;;;;;;10328556;28;20695;-67
2022/02/08 08:14:27;;;;;;;1.37;0.77;;;17.20;64.10;;;;;;10328258;28;20313;-67
2022/02/08 08:19:50;;;;;;;1.80;1.00;;;17.20;64.70;;;;;;10328317;28;20199;-67
2022/02/08 08:25:12;;;;;;;1.27;0.97;;;17.20;64.20;;;;;;10298034;28;20741;-67
2022/02/08 08:30:35;;;;;;;1.50;0.93;;;17.20;64.20;;;;;;10318838;28;20322;-67
2022/02/08 08:35:58;;;;;;;1.07;0.80;;;17.20;64.40;;;;;;10328870;28;20206;-67
2022/02/08 08:41:26;;;;;;;1.50;1.10;;;17.20;64.30;;;;;;10330807;28;20219;-68
2022/02/08 08:52:34;;;;;;;4.53;0.90;;;17.20;64.40;;;;;;10331522;28;20721;-67
2022/02/08 08:57:56;;;;;;;1.83;1.07;;;17.20;64.40;;;;;;10336101;28;20186;-68
2022/02/08 09:03:19;;;;;;;1.53;1.00;;;17.20;64.40;;;;;;10331274;28;20234;-67
2022/02/08 09:08:43;;;;;;;1.73;1.10;;;17.30;64.50;;;;;;10322023;28;20214;-67
2022/02/08 09:14:10;;;;;;;1.40;1.00;;;17.30;64.40;;;;;;10334088;28;20219;-67
2022/02/08 09:20:01;;;;;;;1.00;0.87;;;17.20;64.40;;;;;;10326507;28;20195;-67
2022/02/08 09:31:07;;;;;;;1.33;0.87;;;17.20;64.50;;;;;;10335684;28;20764;-67
2022/02/08 09:36:30;;;;;;;1.73;1.10;;;17.20;64.60;;;;;;10334614;28;20187;-68
2022/02/08 09:41:55;;;;;;;1.70;0.90;;;17.20;64.50;;;;;;10326120;28;20232;-66
2022/02/08 09:47:21;;;;;;;1.30;0.77;;;17.20;64.60;;;;;;10334342;28;20223;-67
2022/02/08 09:52:49;;;;;;;1.73;0.90;;;17.20;64.60;;;;;;10319758;28;20211;-67
2022/02/08 09:58:12;;;;;;;1.33;0.80;;;17.20;64.60;;;;;;10333302;28;20187;-67
2022/02/08 10:03:34;;;;;;;1.20;0.80;;;17.20;64.60;;;;;;10328064;28;20227;-67
2022/02/08 10:09:03;;;;;;;2.07;1.00;;;17.20;64.60;;;;;;10333900;28;20214;-67
2022/02/08 10:14:38;;;;;;;1.33;0.77;;;17.20;64.60;;;;;;10333546;28;20214;-67
2022/02/08 10:25:49;;;;;;;1.00;0.80;;;17.20;64.70;;;;;;10332818;28;20238;-68
2022/02/08 10:31:27;;;;;;;2.83;0.80;;;17.30;64.80;;;;;;10331651;28;20219;-68
2022/02/08 10:42:50;;;;;;;1.60;0.60;;;17.30;64.80;;;;;;10332387;28;20230;-68
2022/02/08 10:48:18;;;;;;;1.20;0.70;;;17.30;64.80;;;;;;10331997;28;20230;-68
2022/02/08 10:53:52;;;;;;;1.50;1.00;;;17.40;64.80;;;;;;10325794;28;20342;-68
2022/02/08 10:59:23;;;;;;;0.93;0.67;;;17.40;64.80;;;;;;10326284;28;20192;-68
2022/02/08 11:04:50;;;;;;;1.00;0.90;;;17.40;64.70;;;;;;10314574;28;20196;-68
2022/02/08 11:10:26;;;;;;;0.70;0.60;;;17.40;64.70;;;;;;10315041;28;20222;-68
2022/02/08 11:15:58;;;;;;;1.23;0.73;;;17.40;64.70;;;;;;10331435;28;20724;-68
2022/02/08 11:21:25;;;;;;;1.00;0.67;;;17.40;64.60;;;;;;10329749;28;20225;-67
2022/02/08 11:26:54;;;;;;;0.90;0.60;;;17.40;64.60;;;;;;10330223;28;20264;-68
2022/02/08 11:32:26;;;;;;;1.50;0.80;;;17.40;64.60;;;;;;10330484;28;20226;-68
2022/02/08 11:55:19;;;;;;;1.30;0.70;;;17.40;64.50;;;;;;10335873;28;20731;-68
2022/02/08 12:00:45;;;;;;;0.80;0.53;;;17.40;64.50;;;;;;10314353;28;20226;-68
2022/02/08 12:06:29;;;;;;;1.30;0.80;;;17.40;64.50;;;;;;10289546;28;20226;-68
2022/02/08 12:12:07;;;;;;;1.63;0.70;;;17.50;64.50;;;;;;10289660;28;20215;-68
2022/02/08 12:35:16;;;;;;;0.70;0.60;;;17.50;64.40;;;;;;10325949;28;20273;-66
2022/02/08 12:58:00;;;;;;;1.53;0.70;;;17.40;64.40;;;;;;10347918;28;20214;-66
2022/02/08 13:03:42;;;;;;;1.67;0.70;;;17.50;64.30;;;;;;10313679;28;20195;-67
2022/02/08 14:06:19;;;;;;;2.33;1.67;;;17.40;65.10;;;;;;10205340;29;20193;-65
2022/02/08 14:17:34;;;;;;;3.87;1.80;;;17.40;65.30;;;;;;10329090;28;20242;-65
2022/02/08 14:23:10;;;;;;;2.90;1.67;;;17.40;65.30;;;;;;10330831;28;20294;-64
2022/02/08 15:13:56;;;;;;;3.83;1.63;;;17.30;65.90;;;;;;10322991;28;20203;-65
2022/02/08 15:19:18;;;;;;;2.73;1.97;;;17.30;66.00;;;;;;10325908;28;20211;-66
2022/02/08 15:24:41;;;;;;;2.97;1.73;;;17.40;66.10;;;;;;10328039;28;20257;-65
2022/02/08 15:30:07;;;;;;;3.13;1.80;;;17.30;66.10;;;;;;10327997;28;20341;-66
2022/02/08 15:35:29;;;;;;;3.03;1.93;;;17.30;66.10;;;;;;10331089;28;21425;-66
2022/02/08 15:40:51;;;;;;;2.37;1.50;;;17.30;66.00;;;;;;10316920;28;20697;-65
2022/02/08 15:46:19;;;;;;;3.03;1.40;;;17.40;66.20;;;;;;10320907;28;20207;-65
2022/02/08 15:51:45;;;;;;;1.90;1.50;;;17.40;66.20;;;;;;10324100;28;20199;-66
2022/02/08 15:57:41;;;;;;;2.23;1.67;;;17.40;66.00;;;;;;10327804;28;20219;-66
2022/02/08 16:08:44;;;;;;;3.93;1.60;;;17.50;65.80;;;;;;10327557;28;20230;-65
2022/02/08 16:14:13;;;;;;;3.30;1.70;;;17.50;65.80;;;;;;10326384;28;20230;-65
2022/02/08 16:19:49;;;;;;;3.17;1.80;;;17.50;65.80;;;;;;10357960;28;20210;-66
2022/02/08 16:25:22;;;;;;;2.83;1.40;;;17.50;65.60;;;;;;10291150;28;20207;-65
2022/02/08 16:53:39;;;;;;;3.70;1.63;;;17.50;66.30;;;;;;10319431;28;20534;-67
2022/02/08 16:59:01;;;;;;;3.03;1.57;;;17.50;66.50;;;;;;10321043;28;20222;-66
2022/02/08 17:04:24;;;;;;;1.90;1.40;;;17.50;66.60;;;;;;10298146;28;20203;-66
2022/02/08 17:09:53;;;;;;;2.43;1.40;;;17.40;66.60;;;;;;10326105;28;20720;-66
2022/02/08 17:15:37;;;;;;;1.40;1.20;;;17.40;67.20;;;;;;10327366;28;20732;-68
2022/02/08 17:49:24;;;;;;;2.20;1.48;;;17.40;66.30;;;;;;10329279;28;20441;-66
2022/02/08 17:54:46;;;;;;;1.50;1.40;;;18.20;63.60;;;;;;10325812;28;20195;-68
2022/02/08 18:00:13;;;;;;;1.23;1.13;;;17.80;65.10;;;;;;10318413;28;20224;-67
2022/02/08 18:05:35;;;;;;;1.60;1.23;;;17.70;65.80;;;;;;10293059;28;20200;-67
2022/02/08 18:10:58;;;;;;;1.93;1.37;;;17.60;66.00;;;;;;10366031;28;20237;-67
2022/02/08 18:16:23;;;;;;;1.97;1.30;;;17.60;66.00;;;;;;10372763;28;20208;-67
2022/02/08 18:21:52;;;;;;;1.20;1.10;;;17.60;66.00;;;;;;10382370;23;20522;-65
2022/02/08 18:27:38;;;;;;;2.53;1.40;;;17.60;66.00;;;;;;10366218;28;20337;-65
2022/02/08 19:07:14;;;;;;;1.20;1.00;;;17.60;65.90;;;;;;10306937;28;20234;-65
2022/02/08 19:12:40;;;;;;;1.27;1.03;;;17.60;65.90;;;;;;10328965;28;20206;-66
2022/02/08 19:18:29;;;;;;;3.00;1.30;;;17.60;65.90;;;;;;10327944;28;20210;-65
2022/02/08 19:23:52;;;;;;;1.27;0.90;;;17.60;65.90;;;;;;10326885;28;20300;-65
2022/02/08 19:29:17;;;;;;;0.93;0.73;;;17.60;65.90;;;;;;10312052;28;20226;-65
2022/02/08 19:34:41;;;;;;;1.47;1.00;;;17.60;65.90;;;;;;10321161;28;20202;-64
2022/02/08 19:40:06;;;;;;;1.57;1.10;;;17.60;65.90;;;;;;10312505;28;20688;-65
2022/02/08 19:45:28;;;;;;;1.30;0.90;;;17.60;65.90;;;;;;10313292;28;20215;-65
2022/02/08 19:50:51;;;;;;;1.17;1.00;;;17.60;65.90;;;;;;10311658;28;20546;-65
2022/02/08 19:56:25;;;;;;;0.80;0.80;;;17.60;65.90;;;;;;10309752;28;20214;-65
2022/02/08 20:01:53;;;;;;;1.40;0.87;;;17.60;65.90;;;;;;10305098;28;20188;-65
2022/02/08 20:07:16;;;;;;;1.37;0.90;;;17.60;65.90;;;;;;10317461;28;20226;-65
2022/02/08 20:12:39;;;;;;;1.53;0.90;;;17.60;66.00;;;;;;10327419;28;20202;-64
2022/02/08 20:18:03;;;;;;;1.97;0.80;;;17.60;65.90;;;;;;10326070;28;20214;-65
2022/02/08 20:23:25;;;;;;;1.47;0.87;;;17.60;65.90;;;;;;10326105;28;20569;-65
2022/02/08 20:28:53;;;;;;;1.23;0.90;;;17.60;66.00;;;;;;10323716;28;20510;-65
2022/02/08 20:34:16;;;;;;;1.03;0.70;;;17.70;66.00;;;;;;10328282;28;20198;-64
2022/02/08 20:39:38;;;;;;;0.97;0.70;;;17.60;66.00;;;;;;10325070;28;20338;-65
2022/02/08 20:45:02;;;;;;;1.40;1.07;;;17.60;66.00;;;;;;10324081;28;20202;-65
2022/02/08 20:50:25;;;;;;;1.37;1.17;;;17.60;66.00;;;;;;10324500;28;20219;-64
2022/02/08 20:55:52;;;;;;;1.80;1.00;;;17.60;66.00;;;;;;10325404;28;20195;-65
2022/02/08 21:01:15;;;;;;;1.73;0.90;;;17.60;66.00;;;;;;10320830;28;20605;-65
2022/02/08 21:06:39;;;;;;;1.97;0.70;;;17.60;66.00;;;;;;10327265;28;20198;-66
2022/02/08 21:12:26;;;;;;;0.97;0.83;;;17.60;66.00;;;;;;10326007;28;20221;-65
2022/02/08 21:17:50;;;;;;;0.90;0.60;;;17.60;66.00;;;;;;10326889;28;20203;-65
2022/02/08 21:23:12;;;;;;;0.90;0.67;;;17.60;66.00;;;;;;10333740;28;20199;-65
2022/02/08 21:28:48;;;;;;;1.43;0.70;;;17.60;66.00;;;;;;10329752;28;20711;-65
2022/02/08 21:51:24;;;;;;;1.20;0.80;;;17.60;66.10;;;;;;10333492;28;20234;-64
2022/02/08 21:56:46;;;;;;;0.83;0.63;;;17.60;66.10;;;;;;10343358;28;20779;-64
2022/02/08 22:02:08;;;;;;;1.00;0.80;;;17.60;66.10;;;;;;10327080;28;20203;-64
2022/02/08 22:07:32;;;;;;;1.37;0.77;;;17.60;66.10;;;;;;10331111;28;20226;-64
2022/02/08 22:18:40;;;;;;;0.73;0.70;;;17.50;66.10;;;;;;10373299;28;20225;-65
2022/02/08 22:24:11;;;;;;;0.70;0.60;;;17.50;66.10;;;;;;10371857;28;20213;-64
2022/02/08 22:29:44;;;;;;;0.90;0.70;;;17.50;66.10;;;;;;10331702;28;20227;-65
2022/02/08 22:35:15;;;;;;;0.80;0.67;;;17.50;66.60;;;;;;10329006;28;20206;-64
2022/02/08 22:40:43;;;;;;;0.40;0.40;;;17.50;66.10;;;;;;10330746;28;20577;-65
2022/02/08 22:46:05;;;;;;;1.23;0.80;;;17.50;66.10;;;;;;10331032;28;20202;-64
2022/02/08 22:51:27;;;;;;;0.70;0.70;;;17.50;66.10;;;;;;10330801;28;20731;-64
2022/02/08 22:56:52;;;;;;;0.57;0.47;;;17.50;66.10;;;;;;10329873;28;20206;-66
2022/02/08 23:02:16;;;;;;;0.93;0.67;;;17.50;66.10;;;;;;10329166;28;20278;-64
2022/02/08 23:07:38;;;;;;;0.70;0.63;;;17.50;66.10;;;;;;10290308;28;20291;-64
2022/02/08 23:13:15;;;;;;;0.50;0.50;;;17.50;66.10;;;;;;10289777;28;20298;-65
2022/02/08 23:41:16;;;;;;;0.80;0.60;;;17.50;66.10;;;;;;10369852;28;20225;-64
2022/02/08 23:46:40;;;;;;;0.70;0.63;;;17.50;66.10;;;;;;10369252;28;20517;-64
2022/02/08 23:52:07;;;;;;;0.50;0.50;;;17.50;66.10;;;;;;10348064;28;20677;-64
2022/02/08 23:57:30;;;;;;;0.83;0.50;;;17.50;66.10;;;;;;10328665;28;20250;-64
